Time;durP1;ratioP1;P1;durP2;ratioP2;P2;SDS_P1;SDS_P2;PMS_P1;PMS_P2;Temp;Humidity;BMP_temperature;BMP_pressure;BME280_temperature;BME280_humidity;BME280_pressure;Samples;Min_cycle;Max_cycle;Signal;HPM_P1;HPM_P2
2023/06/28 00:00:56;;;;;;;10.75;6.05;;;;;;;;;;10645721;27;20037;-74
2023/06/28 00:05:56;;;;;;;11.73;6.47;;;;;;;;;;10655538;27;20209;-74
2023/06/28 00:10:56;;;;;;;11.10;6.37;;;;;;;;;;10630558;27;20023;-74
2023/06/28 00:15:57;;;;;;;7.47;5.38;;;;;;;;;;10627472;27;20476;-74
2023/06/28 00:20:57;;;;;;;15.63;6.50;;;;;;;;;;10626823;27;20228;-74
2023/06/28 00:25:57;;;;;;;11.32;7.45;;;;;;;;;;10626381;27;20094;-74
2023/06/28 00:30:57;;;;;;;8.30;6.50;;;;;;;;;;10626755;27;20078;-74
2023/06/28 00:35:58;;;;;;;13.55;7.25;;;;;;;;;;10626030;27;20015;-75
2023/06/28 00:40:58;;;;;;;11.30;7.13;;;;;;;;;;10626213;27;20019;-74
2023/06/28 00:45:58;;;;;;;11.03;7.40;;;;;;;;;;10614344;27;20061;-74
2023/06/28 00:50:59;;;;;;;11.23;7.60;;;;;;;;;;10582939;28;20306;-74
2023/06/28 00:55:59;;;;;;;13.68;7.95;;;;;;;;;;10612651;27;20347;-74
2023/06/28 01:00:59;;;;;;;12.03;8.30;;;;;;;;;;10625575;27;20076;-74
2023/06/28 01:06:00;;;;;;;13.32;10.32;;;;;;;;;;10625734;27;20217;-74
2023/06/28 01:11:00;;;;;;;15.13;9.40;;;;;;;;;;10624648;27;20055;-74
2023/06/28 01:16:01;;;;;;;16.27;9.25;;;;;;;;;;10624351;27;20031;-74
2023/06/28 01:21:02;;;;;;;24.27;12.23;;;;;;;;;;10615507;27;20023;-74
2023/06/28 01:26:02;;;;;;;12.60;9.73;;;;;;;;;;10581992;28;20028;-74
2023/06/28 01:31:05;;;;;;;19.60;11.33;;;;;;;;;;10615841;27;20011;-74
2023/06/28 01:36:06;;;;;;;15.18;9.80;;;;;;;;;;10624004;27;20294;-74
2023/06/28 01:41:07;;;;;;;11.43;8.82;;;;;;;;;;10624268;27;20056;-74
2023/06/28 01:46:08;;;;;;;15.80;9.98;;;;;;;;;;10604156;27;20027;-74
2023/06/28 01:51:08;;;;;;;13.73;9.52;;;;;;;;;;10593988;27;20016;-74
2023/06/28 01:56:09;;;;;;;18.03;10.63;;;;;;;;;;10625414;27;20308;-74
2023/06/28 02:01:09;;;;;;;14.90;10.38;;;;;;;;;;10624956;27;20015;-74
2023/06/28 02:06:09;;;;;;;16.95;11.77;;;;;;;;;;10624720;27;20221;-74
2023/06/28 02:11:09;;;;;;;24.37;11.37;;;;;;;;;;10624652;27;20258;-74
2023/06/28 02:16:10;;;;;;;17.98;11.40;;;;;;;;;;10624357;27;20343;-74
2023/06/28 02:21:10;;;;;;;16.40;11.48;;;;;;;;;;10624286;27;20090;-74
2023/06/28 02:26:10;;;;;;;18.80;11.60;;;;;;;;;;10624362;27;20037;-74
2023/06/28 02:31:11;;;;;;;21.85;11.75;;;;;;;;;;10623543;27;20022;-74
2023/06/28 02:36:11;;;;;;;21.73;12.68;;;;;;;;;;10624293;27;20099;-74
2023/06/28 02:41:11;;;;;;;18.17;13.60;;;;;;;;;;10623706;27;20018;-73
2023/06/28 02:46:12;;;;;;;23.00;15.45;;;;;;;;;;10623422;27;20060;-74
2023/06/28 02:51:12;;;;;;;27.10;15.80;;;;;;;;;;10623372;27;20023;-74
2023/06/28 02:56:15;;;;;;;20.75;16.63;;;;;;;;;;10623187;27;20022;-74
2023/06/28 03:01:15;;;;;;;23.83;18.50;;;;;;;;;;10622558;27;20034;-74
2023/06/28 03:06:16;;;;;;;27.23;17.38;;;;;;;;;;10615457;27;20130;-74
2023/06/28 03:11:16;;;;;;;25.20;16.63;;;;;;;;;;10622712;28;20225;-74
2023/06/28 03:16:16;;;;;;;22.63;16.27;;;;;;;;;;10622607;27;20324;-74
2023/06/28 03:21:17;;;;;;;22.37;15.97;;;;;;;;;;10622567;27;20046;-72
2023/06/28 03:26:17;;;;;;;20.48;17.60;;;;;;;;;;10622151;28;20093;-72
2023/06/28 03:31:17;;;;;;;23.90;16.38;;;;;;;;;;10616857;28;20312;-75
2023/06/28 03:36:17;;;;;;;21.38;16.23;;;;;;;;;;10622843;28;20015;-74
2023/06/28 03:41:18;;;;;;;26.05;16.00;;;;;;;;;;10622253;28;20224;-73
2023/06/28 03:46:18;;;;;;;23.98;17.35;;;;;;;;;;10616469;27;20031;-74
2023/06/28 03:51:18;;;;;;;24.17;17.05;;;;;;;;;;10614631;27;20204;-73
2023/06/28 03:56:18;;;;;;;24.33;17.77;;;;;;;;;;10600631;27;20281;-74
2023/06/28 04:01:19;;;;;;;34.70;17.17;;;;;;;;;;10622537;27;20022;-74
2023/06/28 04:06:19;;;;;;;34.80;17.63;;;;;;;;;;10622527;27;20248;-74
2023/06/28 04:11:19;;;;;;;24.52;17.92;;;;;;;;;;10626433;27;20189;-74
2023/06/28 04:16:20;;;;;;;30.15;17.90;;;;;;;;;;10545617;22;20453;-85
2023/06/28 04:21:20;;;;;;;27.75;18.45;;;;;;;;;;10423314;28;20029;-85
2023/06/28 04:26:20;;;;;;;25.27;17.02;;;;;;;;;;10426642;28;20451;-86
2023/06/28 04:31:23;;;;;;;21.42;15.57;;;;;;;;;;10429586;28;20576;-82
2023/06/28 04:36:25;;;;;;;22.05;16.20;;;;;;;;;;10444488;28;20538;-84
2023/06/28 04:41:25;;;;;;;24.50;15.45;;;;;;;;;;10426823;28;20021;-83
2023/06/28 04:46:29;;;;;;;24.77;15.90;;;;;;;;;;10420456;28;20029;-84
2023/06/28 04:51:29;;;;;;;31.23;15.05;;;;;;;;;;10420655;28;20024;-78
2023/06/28 04:56:30;;;;;;;21.73;13.68;;;;;;;;;;10433708;28;20032;-80
2023/06/28 05:01:30;;;;;;;43.00;14.23;;;;;;;;;;10443868;28;20039;-82
2023/06/28 05:06:31;;;;;;;25.42;13.63;;;;;;;;;;10442921;28;20029;-85
2023/06/28 05:11:31;;;;;;;22.73;14.43;;;;;;;;;;10425818;28;20028;-82
2023/06/28 05:16:31;;;;;;;22.80;14.20;;;;;;;;;;10442783;28;20057;-78
2023/06/28 05:21:32;;;;;;;25.53;14.43;;;;;;;;;;10424322;28;20020;-82
2023/06/28 05:26:32;;;;;;;20.20;12.15;;;;;;;;;;10424196;28;20032;-79
2023/06/28 05:31:32;;;;;;;19.48;11.77;;;;;;;;;;10424260;28;20025;-78
2023/06/28 05:36:32;;;;;;;27.15;13.65;;;;;;;;;;10442630;28;20059;-80
2023/06/28 05:41:33;;;;;;;20.30;12.20;;;;;;;;;;10424751;28;20025;-81
2023/06/28 05:46:33;;;;;;;16.60;13.13;;;;;;;;;;10408154;28;20098;-83
2023/06/28 05:51:34;;;;;;;21.10;11.80;;;;;;;;;;10441318;28;20120;-82
2023/06/28 05:56:35;;;;;;;18.80;13.13;;;;;;;;;;10423860;28;20060;-80
2023/06/28 06:01:35;;;;;;;17.75;12.27;;;;;;;;;;10422882;28;20032;-81
2023/06/28 06:06:35;;;;;;;16.52;12.20;;;;;;;;;;10439036;28;20051;-82
2023/06/28 06:11:36;;;;;;;15.45;13.35;;;;;;;;;;10439374;28;20035;-82
2023/06/28 06:16:36;;;;;;;19.17;14.68;;;;;;;;;;10421871;28;20096;-77
2023/06/28 06:21:37;;;;;;;23.45;15.57;;;;;;;;;;10423240;28;20096;-82
2023/06/28 06:26:37;;;;;;;19.67;15.90;;;;;;;;;;10423203;28;20029;-84
2023/06/28 06:31:37;;;;;;;24.77;14.83;;;;;;;;;;10439244;28;20147;-76
2023/06/28 06:36:38;;;;;;;22.80;13.30;;;;;;;;;;10421780;28;20453;-78
2023/06/28 06:41:38;;;;;;;19.33;13.52;;;;;;;;;;10422965;28;20043;-76
2023/06/28 06:46:38;;;;;;;20.23;12.60;;;;;;;;;;10439736;28;20032;-80
2023/06/28 06:51:38;;;;;;;23.85;13.65;;;;;;;;;;10422204;28;20052;-76
2023/06/28 06:56:39;;;;;;;14.93;11.20;;;;;;;;;;10422551;28;20515;-79
2023/06/28 07:01:39;;;;;;;16.63;11.90;;;;;;;;;;10422675;28;20106;-82
2023/06/28 07:06:39;;;;;;;15.70;11.50;;;;;;;;;;10438388;28;20082;-84
2023/06/28 07:11:39;;;;;;;18.53;9.90;;;;;;;;;;10439276;28;20021;-82
2023/06/28 07:16:44;;;;;;;17.23;9.73;;;;;;;;;;10398075;28;20453;-81
2023/06/28 07:21:45;;;;;;;13.25;9.20;;;;;;;;;;10412859;28;20271;-83
2023/06/28 07:26:45;;;;;;;22.35;10.07;;;;;;;;;;10430546;28;20021;-82
2023/06/28 07:31:45;;;;;;;17.25;9.57;;;;;;;;;;10430099;28;20032;-78
2023/06/28 07:36:45;;;;;;;13.05;8.70;;;;;;;;;;10430300;28;20045;-77
2023/06/28 07:41:46;;;;;;;13.73;8.87;;;;;;;;;;10447460;28;20075;-82
2023/06/28 07:46:46;;;;;;;20.67;9.83;;;;;;;;;;10429284;28;20083;-82
2023/06/28 07:51:47;;;;;;;14.47;9.20;;;;;;;;;;10428699;28;20017;-81
2023/06/28 07:56:47;;;;;;;23.65;9.02;;;;;;;;;;10428350;28;20025;-83
2023/06/28 08:01:48;;;;;;;17.05;8.60;;;;;;;;;;10428124;28;20028;-79
2023/06/28 08:06:49;;;;;;;13.63;8.02;;;;;;;;;;10427705;28;20017;-82
2023/06/28 08:11:49;;;;;;;11.27;8.73;;;;;;;;;;10427817;28;20024;-83
2023/06/28 08:16:49;;;;;;;15.68;8.63;;;;;;;;;;10427314;28;20227;-81
2023/06/28 08:21:49;;;;;;;14.23;8.80;;;;;;;;;;10427910;28;20223;-80
2023/06/28 08:26:50;;;;;;;13.60;9.15;;;;;;;;;;10429170;28;20035;-80
2023/06/28 08:31:50;;;;;;;16.83;8.93;;;;;;;;;;10426647;28;20013;-84
2023/06/28 08:36:50;;;;;;;11.32;8.05;;;;;;;;;;10426765;28;20028;-81
2023/06/28 08:41:53;;;;;;;13.15;7.35;;;;;;;;;;10427197;28;20089;-78
2023/06/28 08:46:54;;;;;;;13.20;7.72;;;;;;;;;;10427270;28;20489;-82
2023/06/28 08:51:56;;;;;;;14.63;8.45;;;;;;;;;;10427065;28;20024;-83
2023/06/28 08:56:57;;;;;;;11.43;7.03;;;;;;;;;;10425822;28;20428;-82
2023/06/28 09:01:59;;;;;;;11.00;8.18;;;;;;;;;;10426719;28;20021;-82
2023/06/28 09:06:59;;;;;;;8.55;6.65;;;;;;;;;;10454479;28;20032;-77
2023/06/28 09:12:00;;;;;;;11.77;6.87;;;;;;;;;;10438834;28;20021;-78
2023/06/28 09:17:00;;;;;;;9.93;6.78;;;;;;;;;;10446311;28;20056;-83
2023/06/28 09:22:01;;;;;;;9.88;6.85;;;;;;;;;;10408507;28;20128;-81
2023/06/28 09:27:05;;;;;;;11.95;6.88;;;;;;;;;;10384222;28;20114;-76
2023/06/28 09:32:06;;;;;;;11.95;6.80;;;;;;;;;;10395579;28;20018;-78
2023/06/28 09:37:06;;;;;;;9.77;6.30;;;;;;;;;;10397948;28;20017;-81
2023/06/28 09:42:06;;;;;;;9.13;5.57;;;;;;;;;;10424398;28;20071;-83
2023/06/28 09:47:07;;;;;;;14.23;7.27;;;;;;;;;;10441868;28;20040;-81
2023/06/28 09:52:07;;;;;;;8.27;6.03;;;;;;;;;;10424562;28;20294;-80
2023/06/28 09:57:07;;;;;;;15.10;6.55;;;;;;;;;;10423225;28;20055;-76
2023/06/28 10:02:08;;;;;;;9.90;7.32;;;;;;;;;;10425234;28;20031;-85
2023/06/28 10:07:09;;;;;;;13.05;6.80;;;;;;;;;;10441792;28;20412;-76
2023/06/28 10:12:12;;;;;;;9.43;7.07;;;;;;;;;;10422884;28;20429;-77
2023/06/28 10:17:13;;;;;;;11.10;8.27;;;;;;;;;;10422937;28;20402;-83
2023/06/28 10:22:14;;;;;;;15.40;7.35;;;;;;;;;;10422298;28;20587;-77
2023/06/28 10:27:14;;;;;;;10.23;6.83;;;;;;;;;;10422400;28;20039;-78
2023/06/28 10:32:15;;;;;;;12.18;5.93;;;;;;;;;;10422770;28;20628;-84
2023/06/28 10:37:20;;;;;;;8.93;6.20;;;;;;;;;;10421980;28;20537;-79
2023/06/28 10:42:20;;;;;;;13.20;6.25;;;;;;;;;;10424476;28;20082;-83
2023/06/28 10:47:21;;;;;;;10.73;6.63;;;;;;;;;;10422339;28;20377;-77
2023/06/28 10:52:21;;;;;;;9.48;6.47;;;;;;;;;;10421970;28;20043;-79
2023/06/28 10:57:33;;;;;;;8.03;6.33;;;;;;;;;;10441004;28;20017;-83
2023/06/28 11:02:53;;;;;;;11.68;7.07;;;;;;;;;;10423349;28;20104;-85
2023/06/28 11:07:53;;;;;;;10.38;7.07;;;;;;;;;;10421275;28;20021;-82
2023/06/28 11:12:54;;;;;;;10.25;7.80;;;;;;;;;;10421191;28;20440;-79
2023/06/28 11:17:54;;;;;;;12.23;6.43;;;;;;;;;;10438849;28;20063;-76
2023/06/28 11:22:54;;;;;;;13.32;8.07;;;;;;;;;;10420984;28;20031;-80
2023/06/28 11:27:58;;;;;;;13.13;7.07;;;;;;;;;;10439184;28;20079;-79
2023/06/28 11:32:58;;;;;;;8.27;6.55;;;;;;;;;;10438970;28;20404;-82
2023/06/28 11:37:58;;;;;;;12.33;6.87;;;;;;;;;;10420943;28;20028;-83
2023/06/28 11:42:59;;;;;;;11.73;6.85;;;;;;;;;;10405059;28;20057;-78
2023/06/28 11:48:00;;;;;;;14.52;7.68;;;;;;;;;;10420977;28;20033;-76
2023/06/28 11:53:00;;;;;;;15.45;8.18;;;;;;;;;;10405033;28;20021;-83
2023/06/28 11:58:01;;;;;;;11.57;7.47;;;;;;;;;;10421106;28;20024;-82
2023/06/28 12:03:01;;;;;;;14.97;8.10;;;;;;;;;;10420080;28;20036;-78
2023/06/28 12:08:01;;;;;;;11.20;5.57;;;;;;;;;;10445856;28;20408;-80
2023/06/28 12:13:02;;;;;;;12.90;5.90;;;;;;;;;;10445186;28;20155;-77
2023/06/28 12:18:02;;;;;;;7.07;5.10;;;;;;;;;;10427714;28;20106;-82
2023/06/28 12:23:10;;;;;;;15.60;5.25;;;;;;;;;;10427694;28;20211;-79
2023/06/28 12:28:10;;;;;;;;;;;;;;;;;;10445296;28;20029;-77
2023/06/28 12:33:10;;;;;;;9.23;6.00;;;;;;;;;;10426794;28;20346;-76
2023/06/28 12:38:16;;;;;;;13.63;5.47;;;;;;;;;;10426262;28;20031;-76
2023/06/28 12:43:24;;;;;;;11.05;5.78;;;;;;;;;;10426673;28;20039;-81
2023/06/28 12:48:26;;;;;;;16.55;6.18;;;;;;;;;;10425971;28;20621;-76
2023/06/28 12:53:26;;;;;;;8.50;5.30;;;;;;;;;;10425839;28;20186;-78
2023/06/28 12:58:27;;;;;;;17.55;5.60;;;;;;;;;;10445113;28;20039;-80
2023/06/28 13:03:27;;;;;;;10.57;4.85;;;;;;;;;;10426320;28;20032;-76
2023/06/28 13:08:29;;;;;;;11.15;4.78;;;;;;;;;;10425608;28;20118;-82
2023/06/28 13:13:29;;;;;;;14.07;5.25;;;;;;;;;;10425204;28;20179;-76
2023/06/28 13:18:30;;;;;;;11.03;4.93;;;;;;;;;;10453801;28;20660;-82
2023/06/28 13:23:30;;;;;;;11.10;4.85;;;;;;;;;;10467155;28;20460;-83
2023/06/28 13:28:30;;;;;;;11.52;5.22;;;;;;;;;;10493184;28;20036;-79
2023/06/28 13:33:31;;;;;;;6.68;4.38;;;;;;;;;;10505812;28;20032;-80
2023/06/28 13:38:31;;;;;;;9.82;5.10;;;;;;;;;;10486605;28;20028;-77
2023/06/28 13:43:33;;;;;;;9.82;3.95;;;;;;;;;;10469816;28;20466;-78
2023/06/28 13:48:33;;;;;;;9.68;3.90;;;;;;;;;;10477548;28;20523;-77
2023/06/28 13:53:33;;;;;;;12.20;4.13;;;;;;;;;;10484512;28;20027;-79
2023/06/28 13:58:34;;;;;;;8.47;4.67;;;;;;;;;;10447834;28;20040;-79
2023/06/28 14:03:36;;;;;;;10.60;4.18;;;;;;;;;;10465599;28;20426;-77
2023/06/28 14:08:36;;;;;;;10.20;4.20;;;;;;;;;;10464663;28;20112;-79
2023/06/28 14:13:38;;;;;;;6.63;4.30;;;;;;;;;;10465061;28;20050;-79
2023/06/28 14:18:39;;;;;;;13.55;4.43;;;;;;;;;;10448360;28;20122;-77
2023/06/28 14:23:40;;;;;;;13.32;5.10;;;;;;;;;;10464287;28;20036;-80
2023/06/28 14:28:40;;;;;;;15.27;3.97;;;;;;;;;;10449853;28;20021;-81
2023/06/28 14:33:44;;;;;;;12.55;3.58;;;;;;;;;;10430707;28;20100;-81
2023/06/28 14:38:45;;;;;;;5.25;3.53;;;;;;;;;;10482276;28;20029;-82
2023/06/28 14:43:46;;;;;;;14.10;4.32;;;;;;;;;;10464294;28;20028;-79
2023/06/28 14:48:46;;;;;;;15.00;3.50;;;;;;;;;;10464777;28;20029;-80
2023/06/28 14:53:46;;;;;;;7.28;2.85;;;;;;;;;;10480776;28;20480;-82
2023/06/28 14:58:46;;;;;;;12.60;3.10;;;;;;;;;;10463178;28;20470;-80
2023/06/28 15:03:47;;;;;;;10.07;2.97;;;;;;;;;;10471633;28;20480;-81
2023/06/28 15:08:51;;;;;;;4.22;2.92;;;;;;;;;;10437188;28;20029;-76
2023/06/28 15:13:52;;;;;;;6.72;3.30;;;;;;;;;;10457673;28;20103;-76
2023/06/28 15:18:53;;;;;;;6.93;2.72;;;;;;;;;;10447904;28;20094;-80
2023/06/28 15:23:53;;;;;;;7.15;2.95;;;;;;;;;;10460643;28;20512;-86
2023/06/28 15:28:54;;;;;;;6.10;3.53;;;;;;;;;;10424098;28;20029;-80
2023/06/28 15:33:56;;;;;;;5.60;3.03;;;;;;;;;;10425342;28;20024;-81
2023/06/28 15:38:56;;;;;;;6.55;2.83;;;;;;;;;;10433614;28;20056;-82
2023/06/28 15:43:56;;;;;;;5.28;3.08;;;;;;;;;;10445188;28;20456;-80
2023/06/28 15:48:57;;;;;;;9.27;2.60;;;;;;;;;;10443566;28;20099;-79
2023/06/28 15:53:57;;;;;;;5.93;3.15;;;;;;;;;;10444826;28;20024;-80
2023/06/28 15:58:57;;;;;;;6.82;3.72;;;;;;;;;;10461248;28;20408;-76
2023/06/28 16:03:58;;;;;;;7.67;3.20;;;;;;;;;;10432173;28;20033;-79
2023/06/28 16:08:59;;;;;;;6.28;3.22;;;;;;;;;;10467677;28;20152;-86
2023/06/28 16:14:00;;;;;;;7.88;3.22;;;;;;;;;;10438447;28;20094;-87
2023/06/28 16:19:02;;;;;;;13.07;4.35;;;;;;;;;;10435655;28;20082;-81
2023/06/28 16:24:03;;;;;;;9.55;3.20;;;;;;;;;;10431802;28;20024;-77
2023/06/28 16:29:03;;;;;;;9.98;3.60;;;;;;;;;;10420680;28;20050;-84
2023/06/28 16:34:05;;;;;;;8.52;4.20;;;;;;;;;;10431512;28;20030;-81
2023/06/28 16:39:05;;;;;;;9.45;4.10;;;;;;;;;;10453134;28;20037;-77
2023/06/28 16:44:05;;;;;;;13.52;4.88;;;;;;;;;;10434113;28;20028;-85
2023/06/28 16:49:06;;;;;;;14.02;5.15;;;;;;;;;;10440608;28;20403;-82
2023/06/28 16:54:06;;;;;;;9.90;5.05;;;;;;;;;;10423409;28;20036;-83
2023/06/28 16:59:06;;;;;;;9.35;5.07;;;;;;;;;;10435946;28;20048;-82
2023/06/28 17:04:06;;;;;;;10.77;4.82;;;;;;;;;;10427717;28;20032;-82
2023/06/28 17:09:07;;;;;;;9.02;5.70;;;;;;;;;;10432441;28;20024;-82
2023/06/28 17:14:08;;;;;;;8.52;4.75;;;;;;;;;;10435853;28;20036;-82
2023/06/28 17:19:09;;;;;;;11.90;4.82;;;;;;;;;;10410048;28;20075;-77
2023/06/28 17:24:10;;;;;;;9.38;5.15;;;;;;;;;;10398176;28;20067;-82
2023/06/28 17:29:10;;;;;;;22.90;6.80;;;;;;;;;;10407912;28;20334;-82
2023/06/28 17:34:12;;;;;;;16.90;7.00;;;;;;;;;;10416906;28;20037;-78
2023/06/28 17:39:16;;;;;;;10.45;6.07;;;;;;;;;;10408902;28;20408;-81
2023/06/28 17:44:16;;;;;;;12.45;6.63;;;;;;;;;;10408784;28;20047;-84
2023/06/28 17:49:17;;;;;;;11.88;6.25;;;;;;;;;;10417009;28;20029;-83
2023/06/28 17:54:27;;;;;;;12.15;6.57;;;;;;;;;;10401546;28;20595;-78
2023/06/28 17:59:29;;;;;;;11.68;6.05;;;;;;;;;;10404145;28;20053;-81
2023/06/28 18:04:30;;;;;;;10.73;5.90;;;;;;;;;;10411296;28;20124;-75
2023/06/28 18:09:30;;;;;;;11.90;7.17;;;;;;;;;;10433350;28;20060;-78
2023/06/28 18:14:30;;;;;;;15.15;7.20;;;;;;;;;;10431076;28;20276;-76
2023/06/28 18:19:31;;;;;;;10.57;6.90;;;;;;;;;;10446757;28;20025;-80
2023/06/28 18:24:31;;;;;;;10.23;6.75;;;;;;;;;;10426101;28;20028;-84
2023/06/28 18:29:31;;;;;;;12.07;6.57;;;;;;;;;;10412015;28;20029;-82
2023/06/28 18:34:31;;;;;;;10.55;6.65;;;;;;;;;;10442234;28;20330;-81
2023/06/28 18:39:32;;;;;;;14.38;8.00;;;;;;;;;;10425074;28;20561;-79
2023/06/28 18:44:32;;;;;;;13.68;7.55;;;;;;;;;;10427083;28;20483;-82
2023/06/28 18:49:32;;;;;;;11.52;7.03;;;;;;;;;;10430237;28;20032;-82
2023/06/28 18:54:33;;;;;;;12.38;7.82;;;;;;;;;;10442913;28;20451;-81
2023/06/28 18:59:35;;;;;;;13.07;7.78;;;;;;;;;;10419969;28;20032;-81
2023/06/28 19:04:37;;;;;;;12.85;7.72;;;;;;;;;;10426673;28;20086;-78
2023/06/28 19:09:38;;;;;;;11.90;7.85;;;;;;;;;;10431169;28;20091;-79
2023/06/28 19:14:40;;;;;;;11.90;7.65;;;;;;;;;;10452762;28;20617;-76
2023/06/28 19:19:42;;;;;;;15.10;9.18;;;;;;;;;;10456286;28;20037;-82
2023/06/28 19:24:43;;;;;;;14.90;8.07;;;;;;;;;;10438896;28;20027;-79
2023/06/28 19:29:43;;;;;;;18.80;8.90;;;;;;;;;;10446799;28;20033;-86
2023/06/28 19:34:43;;;;;;;14.63;9.23;;;;;;;;;;10447756;28;20112;-84
2023/06/28 19:39:44;;;;;;;13.85;8.85;;;;;;;;;;10445047;28;20503;-82
2023/06/28 19:44:46;;;;;;;18.17;10.02;;;;;;;;;;10460610;28;20032;-79
2023/06/28 19:49:48;;;;;;;15.38;8.95;;;;;;;;;;10438284;28;20496;-78
2023/06/28 19:54:48;;;;;;;16.83;9.82;;;;;;;;;;10445805;28;20070;-76
2023/06/28 19:59:49;;;;;;;17.17;10.05;;;;;;;;;;10436036;28;20029;-80
2023/06/28 20:04:50;;;;;;;16.00;10.30;;;;;;;;;;10435040;28;20406;-78
2023/06/28 20:09:51;;;;;;;18.30;11.13;;;;;;;;;;10440079;28;20104;-82
2023/06/28 20:14:51;;;;;;;20.88;12.45;;;;;;;;;;10461893;28;20102;-78
2023/06/28 20:19:53;;;;;;;23.43;12.53;;;;;;;;;;10474956;28;20120;-80
2023/06/28 20:24:53;;;;;;;22.15;12.43;;;;;;;;;;10455629;28;20029;-83
2023/06/28 20:29:55;;;;;;;23.33;12.57;;;;;;;;;;10458491;28;20028;-82
2023/06/28 20:34:57;;;;;;;23.63;12.63;;;;;;;;;;10465288;28;20162;-81
2023/06/28 20:40:00;;;;;;;23.23;12.65;;;;;;;;;;10454293;28;20021;-81
2023/06/28 20:45:00;;;;;;;24.23;14.88;;;;;;;;;;10414081;28;20025;-80
2023/06/28 20:50:01;;;;;;;24.77;14.10;;;;;;;;;;10468454;28;20038;-76
2023/06/28 20:55:01;;;;;;;21.60;12.33;;;;;;;;;;10454977;28;20122;-77
2023/06/28 21:00:06;;;;;;;23.95;13.35;;;;;;;;;;10479344;28;20012;-84
2023/06/28 21:05:07;;;;;;;21.08;12.52;;;;;;;;;;10465145;28;20069;-81
2023/06/28 21:10:09;;;;;;;28.33;13.50;;;;;;;;;;10489085;28;20020;-83
2023/06/28 21:15:10;;;;;;;24.35;12.80;;;;;;;;;;10490429;28;20101;-84
2023/06/28 21:20:11;;;;;;;26.60;15.60;;;;;;;;;;10480740;28;20449;-78
2023/06/28 21:25:11;;;;;;;25.48;13.95;;;;;;;;;;10467097;28;20109;-85
2023/06/28 21:30:12;;;;;;;29.73;14.73;;;;;;;;;;10464818;28;20020;-77
2023/06/28 21:35:16;;;;;;;24.98;13.50;;;;;;;;;;10464975;28;20274;-82
2023/06/28 21:40:17;;;;;;;28.00;14.23;;;;;;;;;;10516260;28;20406;-81
2023/06/28 21:45:17;;;;;;;25.17;14.55;;;;;;;;;;10457712;28;20077;-76
2023/06/28 21:50:17;;;;;;;23.20;13.70;;;;;;;;;;10481667;28;20487;-77
2023/06/28 21:55:17;;;;;;;22.83;12.30;;;;;;;;;;10465150;28;20499;-81
2023/06/28 22:00:25;;;;;;;26.93;14.87;;;;;;;;;;10463938;28;20031;-82
2023/06/28 22:05:25;;;;;;;23.17;12.50;;;;;;;;;;10463045;28;20020;-82
2023/06/28 22:10:27;;;;;;;19.43;11.50;;;;;;;;;;10462536;28;20029;-83
2023/06/28 22:15:32;;;;;;;18.80;11.23;;;;;;;;;;10462311;28;20303;-81
2023/06/28 22:20:38;;;;;;;10.77;7.10;;;;;;;;;;10469391;28;20074;-78
2023/06/28 22:25:39;;;;;;;11.27;7.85;;;;;;;;;;10486382;28;20017;-76
2023/06/28 22:30:39;;;;;;;17.33;8.85;;;;;;;;;;10490574;28;20032;-81
2023/06/28 22:35:40;;;;;;;19.65;7.60;;;;;;;;;;10494574;28;20024;-80
2023/06/28 22:40:40;;;;;;;10.53;6.23;;;;;;;;;;10465814;28;20043;-77
2023/06/28 22:45:41;;;;;;;13.77;8.40;;;;;;;;;;10466180;28;20024;-80
2023/06/28 22:50:41;;;;;;;12.40;7.30;;;;;;;;;;10480007;28;20019;-78
2023/06/28 22:55:45;;;;;;;11.30;6.75;;;;;;;;;;10462847;28;20013;-80
2023/06/28 23:00:45;;;;;;;15.23;7.57;;;;;;;;;;10462584;28;20024;-84
2023/06/28 23:05:52;;;;;;;13.18;6.63;;;;;;;;;;10480834;28;20020;-83
2023/06/28 23:10:53;;;;;;;14.45;7.85;;;;;;;;;;10447732;28;20088;-83
2023/06/28 23:15:54;;;;;;;19.63;8.10;;;;;;;;;;10463759;28;20056;-83
2023/06/28 23:20:54;;;;;;;13.20;7.37;;;;;;;;;;10462778;28;20032;-80
2023/06/28 23:25:54;;;;;;;10.20;6.37;;;;;;;;;;10462023;28;20263;-80
2023/06/28 23:30:56;;;;;;;14.05;6.93;;;;;;;;;;10482082;28;20489;-86
2023/06/28 23:35:56;;;;;;;11.40;6.85;;;;;;;;;;10464160;28;20029;-79
2023/06/28 23:40:57;;;;;;;10.75;6.95;;;;;;;;;;10481009;28;20036;-79
2023/06/28 23:45:58;;;;;;;11.97;7.67;;;;;;;;;;10464994;28;20029;-79
2023/06/28 23:50:59;;;;;;;14.55;8.30;;;;;;;;;;10422196;28;20024;-79
2023/06/28 23:56:03;;;;;;;14.80;6.45;;;;;;;;;;10453269;28;20024;-83
